Ovale, California
Current Conditions -  °F | °C
As of 8:46 PM on Saturday 25 Oct 2014 (Local Time) from KMHR Reporting Station
Broken Clouds Broken Clouds  
Wind Chill: 63°   Ceiling: 4600
Heat Index: 63°   Visibility: 10mi
Dew Point: 55°   Wind: 6mph
Humidity: 77%   Direction: 210°SSW
Pressure: 30.09"   Gusts: NA
Location:  38.6892°N, 121.219°W
Report Text: KMHR 260346Z 21005KT 10SM BKN046 BKN060 17/13 A3009
Loading
Personal Weather Stations






























Interactive Weather Map
Tropical Storm Tracking
New forecast layout! Learn more

10-Day Weather Forecast

Advertisements
Track Severe Weather on mobile